Time;durP1;ratioP1;P1;durP2;ratioP2;P2;SDS_P1;SDS_P2;PMS_P1;PMS_P2;Temp;Humidity;BMP_temperature;BMP_pressure;BME280_temperature;BME280_humidity;BME280_pressure;Samples;Min_cycle;Max_cycle;Signal;HPM_P1;HPM_P2
2022/10/23 00:01:14;;;;;;;1.15;0.60;;;23.50;57.70;;;;;;4995891;28;20109;-68
2022/10/23 00:03:40;;;;;;;0.98;0.80;;;23.50;57.80;;;;;;4998045;28;20485;-68
2022/10/23 00:06:06;;;;;;;0.70;0.70;;;23.60;57.80;;;;;;4992871;28;20037;-68
2022/10/23 00:08:31;;;;;;;0.88;0.63;;;23.50;57.70;;;;;;4994468;28;20022;-68
2022/10/23 00:10:57;;;;;;;0.68;0.60;;;23.50;57.70;;;;;;4996105;28;20364;-68
2022/10/23 00:13:22;;;;;;;0.77;0.60;;;23.50;57.80;;;;;;4976336;28;20035;-68
2022/10/23 00:15:48;;;;;;;1.15;0.68;;;23.50;57.80;;;;;;4994469;28;20086;-68
2022/10/23 00:18:14;;;;;;;0.75;0.60;;;23.50;57.80;;;;;;4973713;28;20030;-68
2022/10/23 00:20:39;;;;;;;0.80;0.60;;;23.50;57.80;;;;;;4996694;28;20034;-68
2022/10/23 00:23:05;;;;;;;0.77;0.60;;;23.50;57.80;;;;;;4992692;28;20570;-68
2022/10/23 00:25:32;;;;;;;0.55;0.55;;;23.50;57.80;;;;;;4980322;28;20343;-68
2022/10/23 00:27:58;;;;;;;0.98;0.70;;;23.50;57.80;;;;;;4991018;28;20490;-68
2022/10/23 00:30:23;;;;;;;0.63;0.60;;;23.50;57.80;;;;;;4973956;28;20066;-68
2022/10/23 00:32:49;;;;;;;0.75;0.60;;;23.40;57.80;;;;;;4997221;28;20031;-68
2022/10/23 00:35:15;;;;;;;0.60;0.60;;;23.40;57.80;;;;;;4993514;28;20034;-68
2022/10/23 00:37:41;;;;;;;0.80;0.60;;;23.40;57.80;;;;;;5000073;28;20037;-68
2022/10/23 00:40:07;;;;;;;0.88;0.65;;;23.40;57.80;;;;;;4995154;28;20034;-67
2022/10/23 00:42:33;;;;;;;1.20;0.70;;;23.40;57.90;;;;;;4985320;28;20105;-68
2022/10/23 00:45:32;;;;;;;0.60;0.60;;;23.40;57.90;;;;;;4993427;28;20569;-68
2022/10/23 00:47:59;;;;;;;0.60;0.60;;;23.40;57.90;;;;;;4980423;28;20042;-68
2022/10/23 00:50:27;;;;;;;0.90;0.60;;;23.40;58.00;;;;;;4994918;28;20513;-68
2022/10/23 00:52:55;;;;;;;1.23;0.70;;;23.40;57.90;;;;;;4996837;28;20535;-68
2022/10/23 00:55:23;;;;;;;0.68;0.60;;;23.40;58.00;;;;;;4997181;28;20038;-68
2022/10/23 00:57:50;;;;;;;0.65;0.60;;;23.40;57.90;;;;;;4992018;28;20022;-68
2022/10/23 01:00:26;;;;;;;1.20;0.60;;;23.40;58.00;;;;;;4985585;28;20038;-68
2022/10/23 01:02:53;;;;;;;0.63;0.57;;;23.40;58.00;;;;;;4993034;28;20026;-68
2022/10/23 01:05:31;;;;;;;1.25;0.60;;;23.30;57.90;;;;;;4979048;28;20027;-68
2022/10/23 01:08:05;;;;;;;0.60;0.60;;;23.40;58.00;;;;;;4993464;28;20030;-67
2022/10/23 01:10:36;;;;;;;0.70;0.60;;;23.30;58.00;;;;;;4978174;28;20033;-68
2022/10/23 01:13:15;;;;;;;0.90;0.65;;;23.30;58.00;;;;;;4993405;28;20034;-68
2022/10/23 01:16:16;;;;;;;1.10;0.80;;;23.30;58.00;;;;;;4998305;28;20050;-68
2022/10/23 01:19:00;;;;;;;0.55;0.55;;;23.30;58.00;;;;;;4915960;29;20567;-68
2022/10/23 01:21:37;;;;;;;0.68;0.60;;;23.30;58.00;;;;;;4978617;28;20394;-68
2022/10/23 01:24:36;;;;;;;1.25;0.77;;;23.30;58.10;;;;;;5000611;28;20022;-68
2022/10/23 01:27:43;;;;;;;1.05;0.70;;;23.30;58.10;;;;;;4991032;28;20046;-68
2022/10/23 01:30:10;;;;;;;1.25;0.80;;;23.20;58.00;;;;;;4912460;29;20033;-68
2022/10/23 01:32:51;;;;;;;0.73;0.60;;;23.20;58.00;;;;;;4903381;29;20495;-68
2022/10/23 01:35:21;;;;;;;0.77;0.60;;;23.30;58.10;;;;;;4957698;28;20130;-68
2022/10/23 01:37:54;;;;;;;0.75;0.60;;;23.30;58.20;;;;;;4987670;28;20022;-68
2022/10/23 01:40:24;;;;;;;0.85;0.50;;;23.20;58.10;;;;;;4991930;28;20217;-68
2022/10/23 01:42:55;;;;;;;0.65;0.50;;;23.20;58.10;;;;;;5001668;28;20457;-69
2022/10/23 01:45:34;;;;;;;0.60;0.60;;;23.20;58.10;;;;;;4983144;28;20537;-69
2022/10/23 01:48:03;;;;;;;0.50;0.50;;;23.20;58.10;;;;;;4998732;28;20077;-68
2022/10/23 01:50:30;;;;;;;0.53;0.50;;;23.20;58.10;;;;;;4996731;28;20390;-68
2022/10/23 01:52:56;;;;;;;0.52;0.50;;;23.20;58.70;;;;;;4995879;28;20494;-68
2022/10/23 01:55:22;;;;;;;0.55;0.55;;;23.20;58.20;;;;;;4999119;28;20040;-68
2022/10/23 01:57:49;;;;;;;0.82;0.70;;;23.20;58.20;;;;;;4992132;28;20034;-68
2022/10/23 02:00:17;;;;;;;0.80;0.65;;;23.20;58.20;;;;;;4994750;28;20433;-68
2022/10/23 02:02:45;;;;;;;0.85;0.60;;;23.20;58.20;;;;;;5002175;28;20389;-68
2022/10/23 02:05:14;;;;;;;0.60;0.60;;;23.10;58.20;;;;;;4997973;28;20023;-68
2022/10/23 02:07:39;;;;;;;0.70;0.65;;;23.20;58.30;;;;;;5000135;28;20052;-68
2022/10/23 02:10:07;;;;;;;0.88;0.70;;;23.20;58.30;;;;;;4992370;28;20129;-68
2022/10/23 02:12:57;;;;;;;0.93;0.70;;;23.10;58.20;;;;;;4988155;28;20026;-68
2022/10/23 02:15:46;;;;;;;0.70;0.50;;;23.10;58.20;;;;;;4992273;28;20048;-68
2022/10/23 02:18:30;;;;;;;1.15;0.70;;;23.10;58.30;;;;;;4994713;28;20407;-68
2022/10/23 02:21:19;;;;;;;0.50;0.50;;;23.10;58.30;;;;;;5000952;28;20030;-68
2022/10/23 02:23:49;;;;;;;0.65;0.65;;;23.10;58.30;;;;;;5000191;28;20090;-68
2022/10/23 02:26:22;;;;;;;0.95;0.60;;;23.10;58.30;;;;;;4982589;28;20057;-68
2022/10/23 02:29:14;;;;;;;1.05;0.70;;;23.10;58.30;;;;;;4995153;28;20425;-68
2022/10/23 02:31:40;;;;;;;0.60;0.57;;;23.10;58.40;;;;;;4996748;28;20367;-68
2022/10/23 02:34:05;;;;;;;0.98;0.68;;;23.10;58.40;;;;;;4968116;28;20026;-68
2022/10/23 02:36:31;;;;;;;1.23;0.70;;;23.10;58.40;;;;;;4997410;28;20124;-68
2022/10/23 02:38:57;;;;;;;0.80;0.68;;;23.10;58.40;;;;;;4988417;28;20022;-68
2022/10/23 02:41:52;;;;;;;0.80;0.70;;;23.10;58.40;;;;;;4998021;28;20544;-68
2022/10/23 02:44:49;;;;;;;0.80;0.60;;;23.10;58.40;;;;;;4989830;28;20398;-68
2022/10/23 02:48:01;;;;;;;1.20;0.70;;;23.10;58.40;;;;;;4993000;28;20033;-68
2022/10/23 02:50:48;;;;;;;0.50;0.50;;;23.00;58.40;;;;;;4949130;28;20049;-68
2022/10/23 02:53:26;;;;;;;0.60;0.50;;;23.00;58.40;;;;;;4996397;28;20104;-68
2022/10/23 02:56:02;;;;;;;1.17;1.08;;;23.00;58.40;;;;;;4992619;28;20064;-68
2022/10/23 02:58:46;;;;;;;0.93;0.65;;;23.00;58.40;;;;;;5003737;28;20477;-68
2022/10/23 03:01:17;;;;;;;0.60;0.55;;;23.00;58.40;;;;;;4999221;28;20569;-69
2022/10/23 03:03:55;;;;;;;0.75;0.60;;;23.00;58.40;;;;;;4993974;28;20031;-68
2022/10/23 03:06:21;;;;;;;0.98;0.70;;;23.00;58.50;;;;;;4985463;28;20065;-68
2022/10/23 03:09:05;;;;;;;1.30;0.70;;;23.00;58.50;;;;;;4979511;28;20055;-68
2022/10/23 03:11:30;;;;;;;0.60;0.60;;;22.90;58.40;;;;;;4996668;28;20026;-68
2022/10/23 03:13:56;;;;;;;0.70;0.65;;;23.00;58.50;;;;;;4972433;28;20565;-68
2022/10/23 03:16:21;;;;;;;0.90;0.70;;;23.00;59.00;;;;;;4964133;28;20132;-68
2022/10/23 03:18:47;;;;;;;0.75;0.60;;;23.00;58.50;;;;;;5002071;28;20022;-68
2022/10/23 03:21:13;;;;;;;0.60;0.57;;;22.90;58.50;;;;;;4989477;28;20030;-68
2022/10/23 03:23:38;;;;;;;0.52;0.50;;;22.90;58.50;;;;;;4992500;28;20441;-68
2022/10/23 03:26:04;;;;;;;1.17;0.70;;;22.90;58.50;;;;;;4995676;28;20102;-68
2022/10/23 03:28:30;;;;;;;1.00;0.70;;;22.90;58.50;;;;;;4998133;28;20088;-68
2022/10/23 03:30:55;;;;;;;0.50;0.50;;;22.90;58.50;;;;;;4975585;28;20586;-68
2022/10/23 03:33:21;;;;;;;0.88;0.60;;;22.90;58.60;;;;;;4989492;28;20421;-68
2022/10/23 03:35:48;;;;;;;0.80;0.60;;;22.90;58.60;;;;;;5000123;28;20536;-68
2022/10/23 03:38:14;;;;;;;0.60;0.60;;;22.90;58.60;;;;;;5001450;28;20019;-68
2022/10/23 03:40:39;;;;;;;0.93;0.60;;;22.90;58.70;;;;;;4992506;28;20030;-68
2022/10/23 03:43:05;;;;;;;0.60;0.60;;;22.90;58.60;;;;;;4992818;28;20116;-68
2022/10/23 03:45:31;;;;;;;0.55;0.50;;;22.90;58.70;;;;;;4996316;28;20381;-69
2022/10/23 03:47:57;;;;;;;0.50;0.50;;;22.90;58.70;;;;;;4991873;28;20072;-68
2022/10/23 03:50:23;;;;;;;0.60;0.50;;;22.90;58.70;;;;;;4993790;28;20034;-68
2022/10/23 03:52:49;;;;;;;0.75;0.70;;;22.90;58.70;;;;;;4992194;28;20026;-68
2022/10/23 03:55:15;;;;;;;0.60;0.57;;;22.80;58.70;;;;;;4978393;28;20469;-68
2022/10/23 03:57:41;;;;;;;0.82;0.70;;;22.90;58.70;;;;;;4989386;28;20033;-68
2022/10/23 04:00:08;;;;;;;0.90;0.75;;;22.90;58.70;;;;;;4986736;28;20030;-68
2022/10/23 04:02:34;;;;;;;0.57;0.57;;;22.90;58.70;;;;;;4990594;28;20614;-68
2022/10/23 04:04:59;;;;;;;0.60;0.60;;;22.80;58.70;;;;;;4994811;28;20027;-68
2022/10/23 04:07:25;;;;;;;0.93;0.70;;;22.90;58.80;;;;;;4995459;28;20093;-69
2022/10/23 04:09:51;;;;;;;0.55;0.50;;;22.80;58.70;;;;;;4994655;28;20031;-68
2022/10/23 04:12:16;;;;;;;1.02;0.70;;;22.80;58.80;;;;;;4981321;28;20544;-68
2022/10/23 04:14:42;;;;;;;0.50;0.50;;;22.80;58.80;;;;;;4999439;28;20494;-68
2022/10/23 04:17:08;;;;;;;1.05;0.60;;;22.80;58.80;;;;;;4970022;28;20055;-69
2022/10/23 04:19:33;;;;;;;0.50;0.50;;;22.80;58.80;;;;;;4980295;28;20394;-68
2022/10/23 04:21:59;;;;;;;0.70;0.60;;;22.80;58.80;;;;;;4992361;28;20095;-67
2022/10/23 04:24:25;;;;;;;0.75;0.60;;;22.80;58.90;;;;;;4975567;28;20029;-67
2022/10/23 04:26:51;;;;;;;0.82;0.70;;;22.80;58.90;;;;;;4994284;28;20473;-67
2022/10/23 04:29:18;;;;;;;0.73;0.60;;;22.80;58.90;;;;;;4984420;28;20470;-67
2022/10/23 04:31:43;;;;;;;0.73;0.52;;;22.80;58.90;;;;;;4993035;28;20433;-67
2022/10/23 04:34:09;;;;;;;0.52;0.50;;;22.80;58.90;;;;;;4989752;28;20034;-67
2022/10/23 04:36:34;;;;;;;0.47;0.47;;;22.80;59.00;;;;;;4991257;28;20030;-67
2022/10/23 04:39:00;;;;;;;0.60;0.60;;;22.80;59.00;;;;;;4987779;28;20035;-67
2022/10/23 04:41:26;;;;;;;0.63;0.50;;;22.80;59.00;;;;;;5001848;28;20065;-68
2022/10/23 04:43:52;;;;;;;0.50;0.50;;;22.80;59.00;;;;;;4997884;28;20465;-67
2022/10/23 04:46:17;;;;;;;0.50;0.50;;;22.70;59.00;;;;;;4994699;28;20473;-68
2022/10/23 04:48:43;;;;;;;0.55;0.55;;;22.70;59.00;;;;;;4994382;28;20026;-68
2022/10/23 04:51:09;;;;;;;0.73;0.60;;;22.80;59.10;;;;;;4975445;28;20042;-68
2022/10/23 04:53:35;;;;;;;0.55;0.50;;;22.70;59.00;;;;;;4986938;28;20029;-67
2022/10/23 04:56:01;;;;;;;0.50;0.50;;;22.80;59.10;;;;;;4989223;28;20478;-67
2022/10/23 04:58:28;;;;;;;0.75;0.60;;;22.80;59.10;;;;;;4981463;28;20030;-68
2022/10/23 05:00:54;;;;;;;0.60;0.60;;;22.80;59.10;;;;;;4978798;28;20050;-68
2022/10/23 05:03:21;;;;;;;0.90;0.60;;;22.70;59.10;;;;;;4996415;28;20111;-67
2022/10/23 05:05:46;;;;;;;1.02;0.70;;;22.70;59.10;;;;;;4997548;28;20092;-67
2022/10/23 05:08:12;;;;;;;0.55;0.50;;;22.70;59.10;;;;;;4995400;28;20455;-67
2022/10/23 05:10:38;;;;;;;0.90;0.60;;;22.70;59.10;;;;;;4993129;28;20018;-68
2022/10/23 05:13:04;;;;;;;0.60;0.60;;;22.70;59.10;;;;;;4997010;28;20022;-68
2022/10/23 05:15:29;;;;;;;0.50;0.50;;;22.70;59.10;;;;;;4990428;28;20057;-68
2022/10/23 05:18:00;;;;;;;0.52;0.52;;;22.70;59.10;;;;;;4991114;28;20019;-68
2022/10/23 05:20:29;;;;;;;0.77;0.60;;;22.70;59.10;;;;;;4983511;28;20034;-69
2022/10/23 05:22:56;;;;;;;;;;;22.70;59.20;;;;;;4996368;28;20034;-68
2022/10/23 05:25:21;;;;;;;0.73;0.60;;;22.70;59.20;;;;;;4996830;28;19932;-68
2022/10/23 05:27:47;;;;;;;0.60;0.57;;;22.70;59.20;;;;;;4997836;28;20026;-67
2022/10/23 05:30:13;;;;;;;0.50;0.50;;;22.70;59.20;;;;;;4978846;28;20042;-67
2022/10/23 05:32:39;;;;;;;0.60;0.60;;;22.70;59.20;;;;;;4993990;28;20023;-67
2022/10/23 05:35:11;;;;;;;0.60;0.60;;;22.70;59.20;;;;;;4984229;28;20065;-67
2022/10/23 05:37:38;;;;;;;0.50;0.50;;;22.70;59.20;;;;;;4997347;28;20200;-68
2022/10/23 05:40:05;;;;;;;0.68;0.60;;;22.60;59.20;;;;;;5003291;28;20022;-67
2022/10/23 05:42:30;;;;;;;0.90;0.70;;;22.60;59.20;;;;;;4977302;28;20116;-68
2022/10/23 05:44:56;;;;;;;0.77;0.60;;;22.60;59.20;;;;;;5002133;28;20105;-67
2022/10/23 05:47:21;;;;;;;0.68;0.60;;;22.60;59.20;;;;;;4995074;28;20022;-67
2022/10/23 05:49:47;;;;;;;0.88;0.60;;;22.60;59.20;;;;;;4997276;28;20030;-67
2022/10/23 05:52:13;;;;;;;0.57;0.52;;;22.60;59.20;;;;;;4996604;28;20030;-68
2022/10/23 05:54:38;;;;;;;0.65;0.55;;;22.60;59.20;;;;;;4998848;28;20022;-67
2022/10/23 05:57:04;;;;;;;0.63;0.60;;;22.60;59.20;;;;;;4998414;28;20034;-67
2022/10/23 05:59:29;;;;;;;0.80;0.70;;;22.60;59.30;;;;;;4978841;28;20113;-68
2022/10/23 06:01:55;;;;;;;0.60;0.60;;;22.60;59.20;;;;;;4997040;28;20034;-67
2022/10/23 06:04:21;;;;;;;0.60;0.60;;;22.60;59.30;;;;;;4998019;28;20026;-67
2022/10/23 06:06:46;;;;;;;0.50;0.50;;;22.60;59.30;;;;;;4990542;28;20430;-68
2022/10/23 06:09:14;;;;;;;0.50;0.50;;;22.60;59.30;;;;;;4989183;28;20062;-68
2022/10/23 06:11:40;;;;;;;0.88;0.60;;;22.60;59.30;;;;;;5000554;28;20030;-67
2022/10/23 06:14:06;;;;;;;0.80;0.60;;;22.60;59.40;;;;;;4992799;28;20420;-68
2022/10/23 06:16:32;;;;;;;0.50;0.50;;;22.60;59.40;;;;;;5001517;28;20164;-67
2022/10/23 06:18:57;;;;;;;0.60;0.57;;;22.60;59.40;;;;;;5004022;28;20449;-67
2022/10/23 06:21:23;;;;;;;1.67;0.60;;;22.60;59.40;;;;;;4998424;28;20433;-68
2022/10/23 06:23:49;;;;;;;0.60;0.60;;;22.60;59.40;;;;;;4998706;28;20030;-67
2022/10/23 06:26:16;;;;;;;0.60;0.60;;;22.60;59.40;;;;;;4997594;28;20488;-67
2022/10/23 06:28:42;;;;;;;0.85;0.70;;;22.60;59.50;;;;;;4980978;28;20061;-67
2022/10/23 06:31:11;;;;;;;0.80;0.60;;;22.60;59.50;;;;;;4995320;28;20022;-68
2022/10/23 06:33:37;;;;;;;0.73;0.68;;;22.60;59.50;;;;;;4964555;28;20026;-67
2022/10/23 06:36:04;;;;;;;0.70;0.68;;;22.60;59.50;;;;;;4991834;28;20832;-68
2022/10/23 06:38:35;;;;;;;0.90;0.60;;;22.60;59.50;;;;;;4997418;28;20502;-68
2022/10/23 06:41:02;;;;;;;0.63;0.50;;;22.60;59.60;;;;;;4994828;28;20450;-67
2022/10/23 06:43:27;;;;;;;0.93;0.70;;;22.60;59.60;;;;;;4976496;28;20035;-68
2022/10/23 06:45:53;;;;;;;1.00;0.60;;;22.60;59.50;;;;;;4996886;28;20037;-67
2022/10/23 06:48:18;;;;;;;0.60;0.55;;;22.60;59.60;;;;;;4998393;28;20022;-68
2022/10/23 06:50:44;;;;;;;0.80;0.70;;;22.60;59.60;;;;;;4992523;28;20053;-68
2022/10/23 06:53:11;;;;;;;1.70;0.70;;;22.50;59.60;;;;;;4993880;28;20553;-67
2022/10/23 06:55:38;;;;;;;1.27;0.73;;;22.50;59.60;;;;;;5002739;28;20049;-68
2022/10/23 06:58:09;;;;;;;0.70;0.70;;;22.50;59.60;;;;;;4997182;28;20508;-67
2022/10/23 07:00:36;;;;;;;1.02;0.70;;;22.50;59.60;;;;;;4988386;28;20186;-67
2022/10/23 07:03:03;;;;;;;0.70;0.60;;;22.50;59.60;;;;;;4996038;28;20077;-68
2022/10/23 07:05:28;;;;;;;1.27;0.60;;;22.50;59.60;;;;;;4993203;28;20117;-68
2022/10/23 07:07:54;;;;;;;0.77;0.60;;;22.50;59.70;;;;;;4994607;28;20114;-67
2022/10/23 07:10:20;;;;;;;1.65;0.70;;;22.50;59.60;;;;;;4993124;28;20042;-67
2022/10/23 07:12:47;;;;;;;0.57;0.57;;;22.50;59.60;;;;;;4964785;28;20413;-67
2022/10/23 07:15:13;;;;;;;0.80;0.60;;;22.50;59.60;;;;;;5004829;28;20041;-67
2022/10/23 07:17:39;;;;;;;0.80;0.70;;;22.50;59.60;;;;;;4988004;28;20023;-67
2022/10/23 07:20:05;;;;;;;1.10;0.70;;;22.50;59.70;;;;;;4992827;28;20386;-67
2022/10/23 07:22:31;;;;;;;1.25;0.57;;;22.50;59.70;;;;;;4995035;28;20429;-67
2022/10/23 07:24:56;;;;;;;1.10;0.80;;;22.50;59.70;;;;;;4995340;28;20018;-67
2022/10/23 07:27:22;;;;;;;0.70;0.70;;;22.50;59.70;;;;;;4993876;28;20394;-67
2022/10/23 07:29:51;;;;;;;0.90;0.70;;;22.50;59.70;;;;;;4996606;28;20065;-68
2022/10/23 07:32:17;;;;;;;0.82;0.63;;;22.50;59.70;;;;;;4997697;28;20033;-68
2022/10/23 07:34:43;;;;;;;0.70;0.60;;;22.50;59.70;;;;;;4999097;28;20047;-68
2022/10/23 07:37:09;;;;;;;0.73;0.60;;;22.50;59.70;;;;;;4991130;28;20419;-67
2022/10/23 07:39:35;;;;;;;0.75;0.50;;;22.50;59.70;;;;;;4993259;28;20030;-67
2022/10/23 07:42:00;;;;;;;0.60;0.60;;;22.50;59.70;;;;;;4993265;28;20026;-67
2022/10/23 07:44:26;;;;;;;0.68;0.60;;;22.50;59.80;;;;;;4990192;28;20062;-67
2022/10/23 07:46:52;;;;;;;0.90;0.70;;;22.50;59.80;;;;;;4998420;28;20026;-67
2022/10/23 07:49:17;;;;;;;0.90;0.68;;;22.50;59.80;;;;;;4995073;28;20460;-67
2022/10/23 07:51:43;;;;;;;0.98;0.80;;;22.50;59.80;;;;;;4988793;28;20058;-68
2022/10/23 07:54:11;;;;;;;1.40;0.90;;;22.50;59.80;;;;;;4991676;28;20031;-67
2022/10/23 07:56:37;;;;;;;1.33;0.80;;;22.50;59.80;;;;;;4991429;28;20477;-67
2022/10/23 07:59:03;;;;;;;1.08;0.80;;;22.50;59.80;;;;;;4998384;28;20031;-68
2022/10/23 08:01:35;;;;;;;1.35;0.90;;;22.50;59.80;;;;;;4997974;28;20034;-67
2022/10/23 08:04:01;;;;;;;1.80;0.90;;;22.50;59.80;;;;;;4990860;28;20034;-67
2022/10/23 08:06:27;;;;;;;1.00;0.80;;;22.50;59.80;;;;;;4994762;28;20033;-67
2022/10/23 08:08:52;;;;;;;1.33;0.90;;;22.50;59.80;;;;;;4984800;28;20058;-67
2022/10/23 08:11:24;;;;;;;1.48;0.95;;;22.50;59.80;;;;;;4997944;28;20030;-67
2022/10/23 08:14:01;;;;;;;1.33;0.82;;;22.50;59.90;;;;;;4990159;28;20027;-67
2022/10/23 08:16:27;;;;;;;1.35;0.90;;;22.50;59.80;;;;;;4985535;28;20506;-67
2022/10/23 08:18:52;;;;;;;1.58;0.93;;;22.50;59.80;;;;;;4994402;28;20109;-67
2022/10/23 08:21:18;;;;;;;1.65;0.85;;;22.50;59.80;;;;;;4996175;28;20128;-67
2022/10/23 08:23:44;;;;;;;1.20;0.80;;;22.50;59.80;;;;;;4997631;28;20485;-68
2022/10/23 08:26:10;;;;;;;1.10;0.90;;;22.40;59.70;;;;;;4997220;28;20029;-67
2022/10/23 08:28:36;;;;;;;1.30;0.90;;;22.50;59.80;;;;;;4992350;28;20030;-67
2022/10/23 08:31:10;;;;;;;1.13;0.80;;;22.40;59.70;;;;;;4994020;28;20516;-67
2022/10/23 08:33:37;;;;;;;1.20;0.88;;;22.40;59.70;;;;;;4992294;28;20018;-67
2022/10/23 08:36:03;;;;;;;1.38;0.90;;;22.50;59.70;;;;;;4988009;28;20031;-67
2022/10/23 08:38:29;;;;;;;1.30;0.90;;;22.40;59.60;;;;;;4998247;28;20033;-68
2022/10/23 08:40:54;;;;;;;0.98;0.70;;;22.40;59.50;;;;;;4974209;28;20109;-67
2022/10/23 08:43:37;;;;;;;1.20;0.80;;;22.40;59.50;;;;;;4974169;28;20023;-67
2022/10/23 08:46:12;;;;;;;1.30;0.90;;;22.40;59.50;;;;;;4994893;28;20027;-67
2022/10/23 08:48:44;;;;;;;1.13;0.80;;;22.40;59.50;;;;;;5001316;28;20024;-67
2022/10/23 08:51:16;;;;;;;1.48;0.82;;;22.50;59.50;;;;;;4996462;28;20926;-67
2022/10/23 08:53:52;;;;;;;1.30;0.85;;;22.40;59.40;;;;;;4994559;28;20556;-66
2022/10/23 08:56:34;;;;;;;1.10;0.90;;;22.40;59.40;;;;;;4998848;28;20104;-66
2022/10/23 08:59:21;;;;;;;1.05;0.88;;;22.50;59.80;;;;;;5009726;28;20555;-67
2022/10/23 09:01:51;;;;;;;0.98;0.80;;;22.50;59.40;;;;;;5004235;28;20042;-67
2022/10/23 09:04:17;;;;;;;1.10;0.80;;;22.50;59.40;;;;;;4996696;28;20097;-66
2022/10/23 09:06:50;;;;;;;1.13;0.90;;;22.50;59.40;;;;;;4998130;28;20466;-67
2022/10/23 09:09:22;;;;;;;1.45;0.90;;;22.50;59.40;;;;;;5000105;28;20482;-67
2022/10/23 09:12:02;;;;;;;1.48;0.90;;;22.50;59.40;;;;;;4986552;28;20037;-67
2022/10/23 09:14:53;;;;;;;1.30;0.80;;;22.50;59.40;;;;;;4982881;28;20031;-67
2022/10/23 09:17:30;;;;;;;1.13;0.80;;;22.40;59.50;;;;;;5001770;28;20038;-67
2022/10/23 09:20:19;;;;;;;1.83;1.10;;;22.50;59.50;;;;;;5001498;28;20328;-68
2022/10/23 09:22:47;;;;;;;1.23;0.90;;;22.50;59.50;;;;;;4990616;28;20075;-67
2022/10/23 09:25:20;;;;;;;1.13;0.80;;;22.50;59.50;;;;;;5001708;28;20031;-67
2022/10/23 09:27:52;;;;;;;1.00;0.80;;;22.40;59.50;;;;;;4979809;28;20482;-67
2022/10/23 09:30:37;;;;;;;1.00;0.80;;;22.50;59.60;;;;;;4998750;28;20474;-67
2022/10/23 09:33:33;;;;;;;0.90;0.70;;;22.50;59.70;;;;;;4977575;28;20053;-67
2022/10/23 09:36:07;;;;;;;0.93;0.80;;;22.40;59.70;;;;;;4988223;28;20042;-67
2022/10/23 09:38:52;;;;;;;1.10;1.00;;;22.40;59.60;;;;;;5005860;28;20041;-67
2022/10/23 09:41:26;;;;;;;1.23;0.80;;;22.40;59.60;;;;;;5001457;28;20478;-66
2022/10/23 09:44:07;;;;;;;1.85;0.90;;;22.40;59.70;;;;;;4996703;28;20022;-66
2022/10/23 09:46:39;;;;;;;1.15;0.82;;;22.40;59.80;;;;;;4984606;28;20035;-67
2022/10/23 09:49:06;;;;;;;0.85;0.70;;;22.40;59.70;;;;;;4997782;28;20337;-67
2022/10/23 09:51:32;;;;;;;1.20;0.85;;;22.40;59.80;;;;;;4996012;28;20030;-67
2022/10/23 09:53:59;;;;;;;1.30;0.90;;;22.40;59.80;;;;;;5000137;28;20493;-67
2022/10/23 09:56:34;;;;;;;1.15;0.90;;;22.40;59.80;;;;;;5000851;28;20022;-67
2022/10/23 09:59:04;;;;;;;0.98;0.88;;;22.40;59.90;;;;;;5003700;28;20032;-67
2022/10/23 10:01:43;;;;;;;1.00;0.80;;;22.40;59.80;;;;;;4986264;28;20050;-68
2022/10/23 10:04:09;;;;;;;1.30;0.85;;;22.40;59.80;;;;;;4994346;28;20511;-67
2022/10/23 10:06:35;;;;;;;1.65;1.00;;;22.50;59.90;;;;;;4997550;28;20057;-67
2022/10/23 10:09:12;;;;;;;1.08;0.90;;;22.40;59.80;;;;;;4995558;28;20069;-67
2022/10/23 10:12:07;;;;;;;1.75;0.90;;;22.40;59.80;;;;;;4979785;28;20477;-67
2022/10/23 10:15:02;;;;;;;1.45;0.90;;;22.40;59.80;;;;;;4964524;28;20046;-67
2022/10/23 10:17:46;;;;;;;1.02;0.90;;;22.40;59.80;;;;;;4995411;28;20509;-67
2022/10/23 10:20:39;;;;;;;2.85;1.00;;;22.40;59.90;;;;;;4998422;28;20200;-68
2022/10/23 10:23:29;;;;;;;1.25;0.98;;;22.40;60.00;;;;;;4992638;28;20034;-67
2022/10/23 10:26:06;;;;;;;1.95;1.08;;;22.40;60.00;;;;;;4988141;28;20027;-67
2022/10/23 10:28:51;;;;;;;1.67;1.00;;;22.40;60.00;;;;;;4992878;28;20034;-68
2022/10/23 10:31:32;;;;;;;1.17;0.90;;;22.50;60.10;;;;;;4995444;28;20031;-67
2022/10/23 10:34:52;;;;;;;1.20;0.98;;;22.40;60.10;;;;;;4998311;28;20072;-67
2022/10/23 10:37:27;;;;;;;;;;;22.40;60.20;;;;;;4914693;28;20052;-67
2022/10/23 10:40:07;;;;;;;1.40;1.08;;;22.40;60.10;;;;;;4995136;28;20448;-67
2022/10/23 10:43:09;;;;;;;1.70;0.95;;;22.40;60.10;;;;;;4962803;28;20030;-67
2022/10/23 10:45:46;;;;;;;1.50;1.15;;;22.40;60.10;;;;;;4996682;28;20125;-67
2022/10/23 10:48:17;;;;;;;1.05;0.80;;;22.40;60.20;;;;;;4999142;28;20026;-67
2022/10/23 10:50:48;;;;;;;1.67;1.00;;;22.40;60.20;;;;;;4999406;28;20531;-68
2022/10/23 10:53:37;;;;;;;1.50;0.95;;;22.40;60.40;;;;;;4997182;28;20824;-67
2022/10/23 10:56:04;;;;;;;2.08;1.00;;;22.40;60.50;;;;;;4989860;28;20105;-67
2022/10/23 10:58:38;;;;;;;0.80;0.80;;;22.40;60.60;;;;;;4994926;28;20393;-68
2022/10/23 11:01:39;;;;;;;1.33;0.85;;;22.40;60.70;;;;;;4992846;28;20042;-67
2022/10/23 11:04:35;;;;;;;1.10;0.90;;;22.40;60.80;;;;;;4996701;28;20113;-67
2022/10/23 11:07:10;;;;;;;1.42;1.00;;;22.50;61.00;;;;;;4992980;28;20042;-67
2022/10/23 11:09:37;;;;;;;1.20;0.88;;;22.50;60.90;;;;;;4998248;28;20026;-67
2022/10/23 11:12:03;;;;;;;1.35;1.00;;;22.50;60.90;;;;;;5002092;28;20034;-67
2022/10/23 11:14:33;;;;;;;1.83;0.90;;;22.50;60.90;;;;;;4994777;28;20390;-67
2022/10/23 11:17:10;;;;;;;1.10;0.80;;;22.50;60.90;;;;;;4986866;28;20474;-68
2022/10/23 11:20:07;;;;;;;1.45;0.88;;;22.50;61.10;;;;;;4977495;28;20426;-68
2022/10/23 11:22:45;;;;;;;1.30;1.00;;;22.50;61.10;;;;;;4998246;28;20505;-68
2022/10/23 11:25:36;;;;;;;1.10;0.80;;;22.50;61.10;;;;;;4982288;28;20042;-67
2022/10/23 11:28:13;;;;;;;1.20;0.80;;;22.50;61.10;;;;;;4991604;28;20072;-68
2022/10/23 11:31:07;;;;;;;1.20;0.90;;;22.50;61.00;;;;;;4978256;28;20027;-68
2022/10/23 11:34:03;;;;;;;1.27;0.90;;;22.50;61.00;;;;;;4982785;28;20125;-69
2022/10/23 11:36:42;;;;;;;1.38;0.90;;;22.50;61.00;;;;;;4977642;28;20141;-68
2022/10/23 11:39:29;;;;;;;1.23;0.90;;;22.50;61.10;;;;;;5002580;28;20477;-68
2022/10/23 11:41:58;;;;;;;1.63;0.90;;;22.50;61.20;;;;;;4992861;28;20477;-68
2022/10/23 11:44:26;;;;;;;1.40;0.90;;;22.50;61.20;;;;;;4994593;28;20038;-68
2022/10/23 11:47:04;;;;;;;1.00;0.80;;;22.50;61.20;;;;;;4993796;28;20022;-68
2022/10/23 11:49:30;;;;;;;0.98;0.88;;;22.50;61.20;;;;;;4999961;28;20030;-68
2022/10/23 11:52:04;;;;;;;1.05;0.75;;;22.50;61.30;;;;;;4998243;28;20025;-68
2022/10/23 11:54:30;;;;;;;1.45;0.90;;;22.50;61.40;;;;;;4990378;28;20088;-68
2022/10/23 11:57:10;;;;;;;1.27;0.90;;;22.50;61.40;;;;;;4995510;28;20466;-68
2022/10/23 11:59:53;;;;;;;1.67;0.80;;;22.50;61.50;;;;;;4979365;28;20136;-68
2022/10/23 12:02:36;;;;;;;2.00;0.90;;;22.50;61.40;;;;;;4996189;28;20525;-68
2022/10/23 12:05:33;;;;;;;1.02;0.75;;;22.50;61.50;;;;;;4986792;28;20035;-68
2022/10/23 12:08:01;;;;;;;1.52;0.90;;;22.50;61.40;;;;;;4982961;28;20027;-68
2022/10/23 12:10:42;;;;;;;1.63;0.82;;;22.50;61.40;;;;;;4989612;28;20493;-68
2022/10/23 12:13:42;;;;;;;0.95;0.75;;;22.50;61.30;;;;;;4995875;28;20026;-68
2022/10/23 12:16:08;;;;;;;1.17;0.80;;;22.60;61.40;;;;;;4988540;28;20394;-68
2022/10/23 12:18:47;;;;;;;1.30;0.90;;;22.50;61.30;;;;;;4994369;28;20041;-68
2022/10/23 12:21:17;;;;;;;1.00;0.80;;;22.60;61.40;;;;;;4993611;28;20035;-68
2022/10/23 12:24:08;;;;;;;1.88;0.90;;;22.60;61.40;;;;;;4973604;28;20097;-67
2022/10/23 12:26:53;;;;;;;1.23;0.80;;;22.60;61.50;;;;;;4997809;28;20109;-68
2022/10/23 12:29:24;;;;;;;1.00;0.82;;;22.60;61.50;;;;;;4983098;28;20026;-68
2022/10/23 12:32:22;;;;;;;1.33;0.93;;;22.60;61.60;;;;;;4994806;28;20022;-68
2022/10/23 12:35:18;;;;;;;1.52;0.93;;;22.50;61.60;;;;;;4945610;28;20568;-68
2022/10/23 12:38:14;;;;;;;1.20;0.75;;;22.60;61.60;;;;;;4991810;28;20053;-67
2022/10/23 12:40:43;;;;;;;1.02;0.80;;;22.60;61.60;;;;;;4988253;28;20026;-69
2022/10/23 12:43:32;;;;;;;;;;;22.60;61.40;;;;;;4987468;28;20502;-68
2022/10/23 12:46:26;;;;;;;1.07;0.80;;;22.60;61.60;;;;;;4978814;28;19909;-68
2022/10/23 12:48:55;;;;;;;1.42;0.80;;;22.60;61.60;;;;;;4986316;28;20034;-69
2022/10/23 12:51:39;;;;;;;1.50;0.90;;;22.60;61.50;;;;;;4996967;28;20023;-68
2022/10/23 12:54:17;;;;;;;1.15;0.90;;;22.60;61.90;;;;;;4998052;28;20121;-68
2022/10/23 12:56:44;;;;;;;1.55;0.82;;;22.60;61.80;;;;;;4995360;28;20018;-68
2022/10/23 12:59:37;;;;;;;2.33;0.90;;;22.60;61.70;;;;;;4990769;28;20026;-68
2022/10/23 13:02:23;;;;;;;1.85;1.00;;;22.60;61.80;;;;;;4995284;28;20126;-68
2022/10/23 13:04:52;;;;;;;1.40;0.90;;;22.60;61.90;;;;;;4998188;28;20482;-68
2022/10/23 13:07:23;;;;;;;1.75;0.93;;;22.60;61.80;;;;;;4977442;28;20054;-68
2022/10/23 13:09:49;;;;;;;1.98;0.93;;;22.60;61.90;;;;;;4975997;28;20037;-68
2022/10/23 13:12:23;;;;;;;1.58;0.80;;;22.60;61.80;;;;;;4986160;28;20514;-67
2022/10/23 13:14:57;;;;;;;1.20;0.73;;;22.60;61.80;;;;;;5002470;28;20026;-67